Time;durP1;ratioP1;P1;durP2;ratioP2;P2;SDS_P1;SDS_P2;PMS_P1;PMS_P2;Temp;Humidity;BMP_temperature;BMP_pressure;BME280_temperature;BME280_humidity;BME280_pressure;Samples;Min_cycle;Max_cycle;Signal;HPM_P1;HPM_P2
2021/10/07 00:00:37;;;;;;;2.03;1.60;;;12.80;99.90;;;;;;6250005;28;20483;-65
2021/10/07 00:03:40;;;;;;;2.87;1.73;;;12.80;99.90;;;;;;6250484;28;20481;-65
2021/10/07 00:06:43;;;;;;;2.30;1.50;;;12.70;99.90;;;;;;6250290;28;20782;-65
2021/10/07 00:09:51;;;;;;;1.27;1.17;;;12.70;99.90;;;;;;6241124;28;20486;-65
2021/10/07 00:12:54;;;;;;;1.63;1.30;;;12.70;99.90;;;;;;6249879;28;20490;-64
2021/10/07 00:15:58;;;;;;;1.80;1.50;;;12.70;99.90;;;;;;6249534;28;20471;-64
2021/10/07 00:19:01;;;;;;;4.20;1.73;;;12.60;99.90;;;;;;6249987;28;20823;-64
2021/10/07 00:22:04;;;;;;;1.57;1.47;;;12.60;99.90;;;;;;6250112;28;20836;-64
2021/10/07 00:25:11;;;;;;;1.73;1.63;;;12.60;99.90;;;;;;6249717;28;20458;-64
2021/10/07 00:28:14;;;;;;;1.63;1.53;;;12.70;99.90;;;;;;6250232;28;20825;-64
2021/10/07 00:31:20;;;;;;;1.80;1.70;;;12.70;99.90;;;;;;6249648;28;20479;-64
2021/10/07 00:34:27;;;;;;;2.90;1.97;;;12.70;99.90;;;;;;6249984;28;20466;-64
2021/10/07 00:40:51;;;;;;;1.47;1.37;;;12.70;99.90;;;;;;6249613;28;20590;-64
2021/10/07 00:43:54;;;;;;;2.10;1.90;;;12.70;99.90;;;;;;6249858;28;20550;-64
2021/10/07 00:47:00;;;;;;;1.90;1.70;;;12.60;99.90;;;;;;6249727;28;20479;-64
2021/10/07 00:50:04;;;;;;;1.40;1.30;;;12.70;99.90;;;;;;6249266;28;20462;-64
2021/10/07 00:53:07;;;;;;;1.73;1.60;;;12.70;99.90;;;;;;6249953;28;20943;-64
2021/10/07 00:56:12;;;;;;;1.80;1.50;;;12.60;99.90;;;;;;6249707;28;20478;-64
2021/10/07 00:59:15;;;;;;;2.17;1.57;;;12.60;99.90;;;;;;6249498;28;20471;-64
2021/10/07 01:02:20;;;;;;;2.27;1.50;;;12.60;99.90;;;;;;6249266;28;20850;-64
2021/10/07 01:05:23;;;;;;;2.50;1.77;;;12.70;99.90;;;;;;6254184;28;20470;-64
2021/10/07 01:08:27;;;;;;;2.47;2.00;;;12.60;99.90;;;;;;6254104;28;20546;-64
2021/10/07 01:11:31;;;;;;;1.60;1.50;;;12.70;99.90;;;;;;6249617;28;20532;-64
2021/10/07 01:14:36;;;;;;;2.23;1.33;;;12.70;99.90;;;;;;6253857;28;20475;-64
2021/10/07 01:17:39;;;;;;;1.70;1.60;;;12.70;99.90;;;;;;6253797;28;20477;-64
2021/10/07 01:20:43;;;;;;;2.67;1.73;;;12.70;99.90;;;;;;6253977;28;20474;-64
2021/10/07 01:23:49;;;;;;;1.67;1.57;;;12.70;99.90;;;;;;6255398;28;20489;-64
2021/10/07 01:26:52;;;;;;;1.60;1.50;;;12.60;99.90;;;;;;6253784;28;20483;-64
2021/10/07 01:29:57;;;;;;;2.03;1.80;;;12.60;99.90;;;;;;6253278;28;20475;-64
2021/10/07 01:33:00;;;;;;;2.17;1.43;;;12.60;99.90;;;;;;6253396;28;20482;-64
2021/10/07 01:36:05;;;;;;;1.83;1.73;;;12.60;99.90;;;;;;6252905;28;20976;-64
2021/10/07 01:39:09;;;;;;;1.83;1.73;;;12.50;99.90;;;;;;6253496;28;20482;-64
2021/10/07 01:42:12;;;;;;;1.80;1.70;;;12.60;99.90;;;;;;6253214;28;20524;-64
2021/10/07 01:45:15;;;;;;;1.97;1.83;;;12.60;99.90;;;;;;6253143;28;20475;-64
2021/10/07 01:48:19;;;;;;;1.57;1.47;;;12.50;99.90;;;;;;6252724;28;20470;-64
2021/10/07 01:51:23;;;;;;;1.60;1.50;;;12.50;99.90;;;;;;6243066;28;20962;-64
2021/10/07 01:54:26;;;;;;;1.80;1.70;;;12.50;99.90;;;;;;6233345;28;20474;-64
2021/10/07 01:57:29;;;;;;;1.80;1.70;;;12.50;99.90;;;;;;6228256;28;20472;-64
2021/10/07 02:00:32;;;;;;;1.80;1.70;;;12.40;99.90;;;;;;6227818;28;20468;-64
2021/10/07 02:03:36;;;;;;;1.70;1.60;;;12.40;99.90;;;;;;6227667;28;20531;-64
2021/10/07 02:06:40;;;;;;;2.53;1.53;;;12.40;99.90;;;;;;6227742;28;21050;-64
2021/10/07 02:09:43;;;;;;;2.10;1.70;;;12.50;99.90;;;;;;6228039;28;20470;-64
2021/10/07 02:12:48;;;;;;;1.60;1.50;;;12.50;99.90;;;;;;6227763;28;20534;-64
2021/10/07 02:15:51;;;;;;;1.50;1.40;;;12.50;99.90;;;;;;6226981;28;20480;-64
2021/10/07 02:18:55;;;;;;;2.00;1.20;;;12.50;99.90;;;;;;6223699;28;20495;-64
2021/10/07 02:21:59;;;;;;;1.63;1.10;;;12.50;99.90;;;;;;6227694;28;20486;-64
2021/10/07 02:25:03;;;;;;;1.13;1.10;;;12.50;99.90;;;;;;6227657;28;20868;-64
2021/10/07 02:28:06;;;;;;;3.13;1.50;;;12.50;99.90;;;;;;6227171;28;20538;-64
2021/10/07 02:31:09;;;;;;;1.70;1.60;;;12.50;99.90;;;;;;6227009;28;20957;-64
2021/10/07 02:34:13;;;;;;;1.30;1.20;;;12.40;99.90;;;;;;6227828;28;20455;-65
2021/10/07 02:37:17;;;;;;;1.70;1.60;;;12.40;99.90;;;;;;6226958;28;20943;-64
2021/10/07 02:40:21;;;;;;;1.60;1.50;;;12.40;99.90;;;;;;6226812;28;20484;-65
2021/10/07 02:43:24;;;;;;;1.50;1.40;;;12.30;99.90;;;;;;6227306;28;20460;-65
2021/10/07 02:46:27;;;;;;;1.67;1.57;;;12.30;99.90;;;;;;6226993;28;20872;-65
2021/10/07 02:49:30;;;;;;;1.77;1.67;;;12.30;99.90;;;;;;6226598;28;20967;-65
2021/10/07 02:52:35;;;;;;;1.70;1.50;;;12.20;99.90;;;;;;6227049;28;20472;-65
2021/10/07 02:55:38;;;;;;;2.27;1.93;;;12.20;99.90;;;;;;6227486;28;20464;-65
2021/10/07 02:58:41;;;;;;;2.00;1.90;;;12.30;99.90;;;;;;6226856;28;20826;-65
2021/10/07 03:01:44;;;;;;;2.30;2.20;;;12.20;99.90;;;;;;6227155;28;20491;-65
2021/10/07 03:04:49;;;;;;;3.53;2.37;;;12.20;99.90;;;;;;6227263;28;20464;-65
2021/10/07 03:07:53;;;;;;;3.30;3.00;;;12.30;99.90;;;;;;6228441;28;20478;-65
2021/10/07 03:10:56;;;;;;;19.40;13.97;;;12.30;99.90;;;;;;6226840;28;20483;-65
2021/10/07 03:13:59;;;;;;;7.80;6.80;;;12.20;99.90;;;;;;6226683;28;20515;-65
2021/10/07 03:17:03;;;;;;;18.40;12.90;;;12.20;99.90;;;;;;6226503;28;20484;-65
2021/10/07 03:20:08;;;;;;;20.20;13.20;;;12.20;99.90;;;;;;6216754;28;20468;-65
2021/10/07 03:23:12;;;;;;;11.13;7.67;;;12.20;99.90;;;;;;6226201;28;20495;-65
2021/10/07 03:26:15;;;;;;;10.20;7.40;;;12.20;99.90;;;;;;6226203;28;20484;-65
2021/10/07 03:29:18;;;;;;;16.13;11.50;;;12.30;99.90;;;;;;6226285;28;20478;-65
2021/10/07 03:32:22;;;;;;;3.83;3.23;;;12.20;99.90;;;;;;6225856;28;20847;-64
2021/10/07 03:35:25;;;;;;;3.23;2.53;;;12.30;99.90;;;;;;6225971;28;20527;-64
2021/10/07 03:38:30;;;;;;;2.80;2.27;;;12.30;99.90;;;;;;6226287;28;20948;-64
2021/10/07 03:41:33;;;;;;;2.47;2.13;;;12.30;99.90;;;;;;6225775;28;20994;-64
2021/10/07 03:44:36;;;;;;;2.50;2.33;;;12.30;99.90;;;;;;6225806;28;20492;-64
2021/10/07 03:47:39;;;;;;;2.40;2.20;;;12.30;99.90;;;;;;6225613;28;20479;-65
2021/10/07 03:50:42;;;;;;;1.13;1.03;;;12.30;99.90;;;;;;6225754;28;20479;-65
2021/10/07 03:53:47;;;;;;;0.87;0.87;;;12.30;99.90;;;;;;6226205;28;20467;-64
2021/10/07 03:56:50;;;;;;;1.07;0.60;;;12.30;99.90;;;;;;6225464;28;20476;-64
2021/10/07 03:59:53;;;;;;;0.70;0.70;;;12.30;99.90;;;;;;6225222;28;20821;-64
2021/10/07 04:02:57;;;;;;;0.90;0.90;;;12.20;99.90;;;;;;6228068;28;20602;-64
2021/10/07 04:06:01;;;;;;;1.33;0.90;;;12.20;99.90;;;;;;6225449;28;20482;-64
2021/10/07 04:09:06;;;;;;;1.00;0.83;;;12.10;99.90;;;;;;6225701;28;20585;-64
2021/10/07 04:12:10;;;;;;;1.10;0.93;;;12.20;99.90;;;;;;6225411;28;20541;-64
2021/10/07 04:15:13;;;;;;;1.70;1.17;;;12.20;99.90;;;;;;6225414;28;20984;-65
2021/10/07 04:18:17;;;;;;;1.00;0.87;;;12.20;99.90;;;;;;6225450;28;20498;-64
2021/10/07 04:21:20;;;;;;;1.60;0.70;;;12.20;99.90;;;;;;6225071;28;20486;-64
2021/10/07 04:24:24;;;;;;;1.57;0.90;;;12.20;99.90;;;;;;6221369;28;20480;-64
2021/10/07 04:27:27;;;;;;;1.73;0.80;;;12.20;99.90;;;;;;6225562;28;20538;-64
2021/10/07 04:30:30;;;;;;;2.00;0.97;;;12.10;99.90;;;;;;6225016;28;20476;-64
2021/10/07 04:33:33;;;;;;;2.00;1.23;;;12.10;99.90;;;;;;6225016;28;20490;-64
2021/10/07 04:36:37;;;;;;;1.20;0.90;;;12.00;99.90;;;;;;6225197;28;20471;-64
2021/10/07 04:39:41;;;;;;;1.37;0.80;;;12.00;99.90;;;;;;6228801;28;20510;-64
2021/10/07 04:42:44;;;;;;;1.80;1.20;;;12.00;99.90;;;;;;6229958;28;20475;-64
2021/10/07 04:45:47;;;;;;;1.83;1.13;;;12.00;99.90;;;;;;6229952;28;20475;-64
2021/10/07 04:48:51;;;;;;;1.20;1.10;;;12.10;99.90;;;;;;6230313;28;20483;-64
2021/10/07 04:51:54;;;;;;;1.13;0.97;;;12.10;99.90;;;;;;6231285;28;20471;-64
2021/10/07 04:54:59;;;;;;;1.80;1.13;;;12.00;99.90;;;;;;6230100;28;20475;-64
2021/10/07 04:58:02;;;;;;;1.63;1.40;;;12.10;99.90;;;;;;6230221;28;20503;-64
2021/10/07 05:01:05;;;;;;;1.50;1.40;;;12.10;99.90;;;;;;6254794;28;20822;-64
2021/10/07 05:04:08;;;;;;;2.40;1.07;;;12.10;99.90;;;;;;6254265;28;20461;-65
2021/10/07 05:07:11;;;;;;;1.80;1.40;;;12.00;99.90;;;;;;6254095;28;20451;-66
2021/10/07 05:10:16;;;;;;;1.13;1.03;;;12.00;99.90;;;;;;6252929;28;20450;-67
2021/10/07 05:13:19;;;;;;;1.60;1.20;;;12.10;99.90;;;;;;6254261;28;20451;-66
2021/10/07 05:16:22;;;;;;;1.30;1.20;;;12.10;99.90;;;;;;6253773;28;20454;-66
2021/10/07 05:19:25;;;;;;;2.40;1.43;;;12.20;99.90;;;;;;6243110;28;20475;-70
2021/10/07 05:22:28;;;;;;;3.10;1.70;;;12.20;99.90;;;;;;6246489;28;20853;-67
2021/10/07 05:25:33;;;;;;;1.83;1.70;;;12.30;99.90;;;;;;6246114;28;20468;-67
2021/10/07 05:28:37;;;;;;;1.60;1.50;;;12.30;99.90;;;;;;6216165;28;20469;-68
2021/10/07 05:31:40;;;;;;;2.70;1.97;;;12.40;99.90;;;;;;6215648;28;20973;-67
2021/10/07 05:34:44;;;;;;;2.27;1.70;;;12.40;99.90;;;;;;6226812;28;20469;-69
2021/10/07 05:37:47;;;;;;;1.63;1.53;;;12.40;99.90;;;;;;6214617;28;20475;-64
2021/10/07 05:40:52;;;;;;;1.70;1.40;;;12.50;99.90;;;;;;6225064;28;20625;-70
2021/10/07 05:43:55;;;;;;;2.43;1.40;;;12.40;99.90;;;;;;6228660;28;20475;-69
2021/10/07 05:46:58;;;;;;;1.70;1.60;;;12.40;99.90;;;;;;6228720;28;20475;-70
2021/10/07 05:50:01;;;;;;;2.40;0.97;;;12.50;99.90;;;;;;6225073;28;20936;-67
2021/10/07 05:53:04;;;;;;;1.50;1.20;;;12.50;99.90;;;;;;6219287;28;20476;-66
2021/10/07 05:56:09;;;;;;;1.60;1.50;;;12.60;99.90;;;;;;6222707;28;20476;-66
2021/10/07 05:59:12;;;;;;;2.20;1.30;;;12.60;99.90;;;;;;6211681;28;20471;-72
2021/10/07 06:02:15;;;;;;;1.80;1.70;;;12.60;99.90;;;;;;6227282;28;20472;-68
2021/10/07 06:05:19;;;;;;;1.57;1.27;;;12.70;99.90;;;;;;6227410;28;20478;-68
2021/10/07 06:08:22;;;;;;;1.20;1.10;;;12.70;99.90;;;;;;6227431;28;20480;-67
2021/10/07 06:11:27;;;;;;;1.10;1.00;;;12.70;99.90;;;;;;6226616;28;20996;-67
2021/10/07 06:14:31;;;;;;;3.53;1.73;;;12.70;99.90;;;;;;6227257;28;20468;-67
2021/10/07 06:17:34;;;;;;;1.60;1.47;;;12.70;99.90;;;;;;6225950;28;20472;-68
2021/10/07 06:20:38;;;;;;;2.90;1.20;;;12.70;99.90;;;;;;6227329;28;20471;-68
2021/10/07 06:23:43;;;;;;;1.43;1.10;;;12.70;99.90;;;;;;6227411;28;20800;-68
2021/10/07 06:27:04;;;;;;;1.60;1.13;;;12.70;99.90;;;;;;6227174;28;20480;-68
2021/10/07 06:30:07;;;;;;;1.10;1.00;;;12.60;99.90;;;;;;6227419;28;20483;-67
2021/10/07 06:33:10;;;;;;;3.67;0.97;;;12.50;99.90;;;;;;6218935;28;20490;-68
2021/10/07 06:36:14;;;;;;;1.13;0.80;;;12.40;99.90;;;;;;6229769;28;20475;-68
2021/10/07 06:39:17;;;;;;;1.93;0.87;;;12.40;99.90;;;;;;6228633;28;20871;-68
2021/10/07 06:42:21;;;;;;;1.40;1.13;;;12.50;99.90;;;;;;6227313;28;20467;-68
2021/10/07 06:45:26;;;;;;;1.73;0.90;;;12.60;99.90;;;;;;6226997;28;20476;-66
2021/10/07 06:48:30;;;;;;;0.90;0.90;;;12.60;99.90;;;;;;6227843;28;20801;-66
2021/10/07 06:51:33;;;;;;;1.37;0.60;;;12.60;99.90;;;;;;6227450;28;20480;-66
2021/10/07 06:54:36;;;;;;;0.90;0.67;;;12.60;99.90;;;;;;6227294;28;20486;-65
2021/10/07 06:57:42;;;;;;;1.87;0.70;;;12.50;99.90;;;;;;6247945;28;20862;-65
2021/10/07 07:00:45;;;;;;;0.60;0.50;;;12.50;99.90;;;;;;6250799;28;20491;-66
2021/10/07 07:03:49;;;;;;;2.40;0.80;;;12.50;99.90;;;;;;6248951;28;20882;-65
2021/10/07 07:06:54;;;;;;;0.70;0.53;;;12.60;99.90;;;;;;6240338;28;20813;-65
2021/10/07 07:09:57;;;;;;;0.70;0.60;;;12.60;99.90;;;;;;6231586;28;20957;-66
2021/10/07 07:13:17;;;;;;;4.10;1.27;;;12.60;99.90;;;;;;6201954;28;20459;-67
2021/10/07 07:16:21;;;;;;;2.87;0.60;;;12.60;99.90;;;;;;6213064;28;20463;-66
2021/10/07 07:19:24;;;;;;;1.03;0.93;;;12.60;99.90;;;;;;6250555;28;20925;-66
2021/10/07 07:22:27;;;;;;;0.70;0.70;;;12.50;99.90;;;;;;6251238;28;20931;-67
2021/10/07 07:25:30;;;;;;;2.50;0.70;;;12.60;99.90;;;;;;6251961;28;20478;-66
2021/10/07 07:28:35;;;;;;;1.33;0.80;;;12.50;99.90;;;;;;6247491;28;20478;-66
2021/10/07 07:31:39;;;;;;;1.63;0.77;;;12.50;99.90;;;;;;6226799;28;20472;-67
2021/10/07 07:34:42;;;;;;;1.37;0.53;;;12.40;99.90;;;;;;6222218;28;20472;-67
2021/10/07 07:37:47;;;;;;;0.50;0.40;;;12.50;99.90;;;;;;6231015;28;20490;-66
2021/10/07 07:40:50;;;;;;;0.57;0.50;;;12.50;99.90;;;;;;6250676;28;20486;-64
2021/10/07 07:43:55;;;;;;;0.50;0.40;;;12.40;99.90;;;;;;6250727;28;20792;-66
2021/10/07 07:46:58;;;;;;;0.50;0.40;;;12.40;99.90;;;;;;6250457;28;20471;-63
2021/10/07 07:50:01;;;;;;;0.97;0.67;;;12.30;99.90;;;;;;6249956;28;20479;-63
2021/10/07 07:53:04;;;;;;;0.50;0.50;;;12.40;99.90;;;;;;6251071;28;20486;-64
2021/10/07 07:56:07;;;;;;;1.57;0.60;;;12.40;99.90;;;;;;6250064;28;20486;-64
2021/10/07 07:59:12;;;;;;;1.50;0.50;;;12.40;99.90;;;;;;6250046;28;20482;-63
2021/10/07 08:02:16;;;;;;;1.53;0.60;;;12.40;99.90;;;;;;6249588;28;21098;-64
2021/10/07 08:05:19;;;;;;;0.70;0.70;;;12.40;99.90;;;;;;6233993;28;20967;-63
2021/10/07 08:08:22;;;;;;;0.50;0.50;;;12.40;99.90;;;;;;6201069;28;20477;-66
2021/10/07 08:11:25;;;;;;;1.90;0.53;;;12.40;99.90;;;;;;6201327;28;20488;-66
2021/10/07 08:14:30;;;;;;;0.63;0.47;;;12.40;99.90;;;;;;6227241;28;20909;-63
2021/10/07 08:17:34;;;;;;;0.53;0.53;;;12.30;99.90;;;;;;6242767;28;20475;-64
2021/10/07 08:20:39;;;;;;;0.80;0.60;;;12.40;99.90;;;;;;6229904;28;20507;-65
2021/10/07 08:23:42;;;;;;;0.70;0.60;;;12.40;99.90;;;;;;6230884;28;20502;-65
2021/10/07 08:26:45;;;;;;;0.80;0.43;;;12.30;99.90;;;;;;6229533;28;20487;-65
2021/10/07 08:29:50;;;;;;;2.40;0.60;;;12.30;99.90;;;;;;6229435;28;20471;-65
2021/10/07 08:32:53;;;;;;;1.43;0.53;;;12.30;99.90;;;;;;6228937;28;20494;-67
2021/10/07 08:35:56;;;;;;;1.00;0.50;;;12.40;99.90;;;;;;6229806;28;20479;-66
2021/10/07 08:38:59;;;;;;;1.07;0.50;;;12.40;99.90;;;;;;6230155;28;20486;-67
2021/10/07 08:42:03;;;;;;;0.97;0.40;;;12.40;99.90;;;;;;6216114;28;20491;-67
2021/10/07 08:45:08;;;;;;;0.83;0.60;;;12.50;99.90;;;;;;6230156;28;20483;-67
2021/10/07 08:48:12;;;;;;;1.03;0.50;;;12.50;99.90;;;;;;6230002;28;20475;-67
2021/10/07 08:51:15;;;;;;;1.50;0.60;;;12.50;99.90;;;;;;6229800;28;20790;-67
2021/10/07 08:54:19;;;;;;;1.47;0.80;;;12.50;99.90;;;;;;6229997;28;20471;-67
2021/10/07 08:57:22;;;;;;;0.73;0.63;;;12.50;99.90;;;;;;6228321;28;20507;-67
2021/10/07 09:00:27;;;;;;;0.87;0.70;;;12.60;99.90;;;;;;6229358;28;20537;-67
2021/10/07 09:03:30;;;;;;;1.00;0.70;;;12.60;99.90;;;;;;6228984;28;20479;-67
2021/10/07 09:06:33;;;;;;;0.80;0.70;;;12.60;99.90;;;;;;6229484;28;20482;-66
2021/10/07 09:09:39;;;;;;;1.03;0.90;;;12.70;99.90;;;;;;6229349;28;20471;-66
2021/10/07 09:13:03;;;;;;;0.93;0.83;;;12.70;99.90;;;;;;6229252;28;20472;-65
2021/10/07 09:16:07;;;;;;;1.13;0.67;;;12.70;99.90;;;;;;6228908;28;20467;-65
2021/10/07 09:19:18;;;;;;;0.80;0.50;;;12.70;99.90;;;;;;6229179;28;20531;-66
2021/10/07 09:22:24;;;;;;;0.73;0.70;;;12.80;99.90;;;;;;6228481;28;20490;-67
2021/10/07 09:25:27;;;;;;;0.60;0.40;;;12.90;99.90;;;;;;6222179;28;20456;-64
2021/10/07 09:28:50;;;;;;;0.80;0.80;;;13.00;99.90;;;;;;6208241;28;20935;-64
2021/10/07 09:31:54;;;;;;;0.70;0.50;;;13.00;99.90;;;;;;6214208;28;20468;-67
2021/10/07 09:34:59;;;;;;;0.90;0.90;;;13.00;99.90;;;;;;6228690;28;20471;-66
2021/10/07 09:38:05;;;;;;;2.50;0.90;;;12.90;99.90;;;;;;6228391;28;20503;-68
2021/10/07 09:41:13;;;;;;;1.70;0.90;;;12.90;99.90;;;;;;6228446;28;20480;-65
2021/10/07 09:44:17;;;;;;;1.00;0.80;;;12.90;99.90;;;;;;6219504;28;20495;-68
2021/10/07 09:47:29;;;;;;;1.47;1.27;;;12.90;99.90;;;;;;6228364;28;20483;-67
2021/10/07 09:50:35;;;;;;;1.00;0.70;;;12.90;99.90;;;;;;6227347;28;20480;-67
2021/10/07 09:53:38;;;;;;;0.63;0.50;;;12.90;99.90;;;;;;6228317;28;20475;-66
2021/10/07 09:56:41;;;;;;;2.00;0.53;;;13.00;99.90;;;;;;6227439;28;21481;-67
2021/10/07 09:59:56;;;;;;;5.43;2.63;;;12.90;99.90;;;;;;6241017;28;20852;-67
2021/10/07 10:03:02;;;;;;;1.20;1.10;;;13.00;99.90;;;;;;6253913;28;20491;-66
2021/10/07 10:06:06;;;;;;;1.17;1.07;;;13.10;99.90;;;;;;6256997;28;20467;-65
2021/10/07 10:09:11;;;;;;;1.20;0.80;;;13.20;99.90;;;;;;6252173;28;20489;-66
2021/10/07 10:12:14;;;;;;;0.90;0.60;;;13.10;99.90;;;;;;6252398;28;20471;-63
2021/10/07 10:15:18;;;;;;;2.27;0.80;;;13.00;99.90;;;;;;6251471;28;20481;-64
2021/10/07 10:18:23;;;;;;;1.57;0.83;;;13.00;99.90;;;;;;6251374;28;20467;-64
2021/10/07 10:21:27;;;;;;;0.70;0.63;;;13.10;99.90;;;;;;6251369;28;20478;-64
2021/10/07 10:24:30;;;;;;;1.10;0.70;;;13.20;99.90;;;;;;6231951;28;20479;-64
2021/10/07 10:27:56;;;;;;;1.17;0.63;;;13.40;99.90;;;;;;6247024;28;20993;-64
2021/10/07 10:31:05;;;;;;;1.60;0.70;;;13.50;99.90;;;;;;6251619;28;20494;-64
2021/10/07 10:34:12;;;;;;;1.33;0.97;;;13.70;99.90;;;;;;6227047;28;20448;-64
2021/10/07 10:37:16;;;;;;;1.10;1.00;;;13.90;99.90;;;;;;6224804;28;20475;-63
2021/10/07 10:40:22;;;;;;;1.20;0.70;;;13.90;99.90;;;;;;6227145;28;20443;-63
2021/10/07 10:43:40;;;;;;;2.33;0.70;;;14.00;99.90;;;;;;6226435;28;20551;-64
2021/10/07 10:46:43;;;;;;;1.47;1.37;;;14.10;99.90;;;;;;6217602;28;20468;-64
2021/10/07 10:50:10;;;;;;;1.17;1.07;;;14.10;99.90;;;;;;6226586;28;20483;-64
2021/10/07 10:53:22;;;;;;;1.43;1.00;;;14.10;99.90;;;;;;6225654;28;20996;-65
2021/10/07 10:56:29;;;;;;;1.30;1.20;;;14.00;99.90;;;;;;6236738;28;20478;-64
2021/10/07 10:59:37;;;;;;;1.10;1.00;;;13.90;99.90;;;;;;6250430;28;20471;-65
2021/10/07 11:02:42;;;;;;;1.40;1.07;;;13.80;99.90;;;;;;6250591;28;20863;-64
2021/10/07 11:05:58;;;;;;;1.77;1.67;;;13.80;99.90;;;;;;6250664;28;20475;-65
2021/10/07 11:09:02;;;;;;;0.83;0.70;;;13.70;99.90;;;;;;6250463;28;20471;-64
2021/10/07 11:12:05;;;;;;;0.70;0.60;;;13.70;99.90;;;;;;6250896;28;20471;-64
2021/10/07 11:15:10;;;;;;;3.80;1.30;;;13.70;99.90;;;;;;6250822;28;20943;-64
2021/10/07 11:18:13;;;;;;;1.10;0.60;;;13.70;99.90;;;;;;6250153;28;20467;-67
2021/10/07 11:21:20;;;;;;;0.60;0.47;;;13.70;99.90;;;;;;6231822;28;20479;-67
2021/10/07 11:24:23;;;;;;;1.70;1.40;;;13.60;99.90;;;;;;6245440;28;20495;-67
2021/10/07 11:27:38;;;;;;;0.90;0.70;;;13.50;99.90;;;;;;6250716;28;20978;-66
2021/10/07 11:30:44;;;;;;;2.50;0.80;;;13.40;99.90;;;;;;6250828;28;20486;-66
2021/10/07 11:33:51;;;;;;;0.90;0.70;;;13.50;99.90;;;;;;6249543;28;20486;-67
2021/10/07 11:36:55;;;;;;;1.47;0.90;;;13.40;99.90;;;;;;6250937;28;20470;-67
2021/10/07 11:40:19;;;;;;;1.03;1.00;;;13.40;99.90;;;;;;6250533;28;20494;-66
2021/10/07 11:43:24;;;;;;;0.60;0.60;;;13.40;99.90;;;;;;6228902;28;20949;-66
2021/10/07 11:46:28;;;;;;;3.80;1.33;;;13.50;99.90;;;;;;6228635;28;20463;-66
2021/10/07 11:49:31;;;;;;;1.57;1.17;;;13.50;99.90;;;;;;6217215;28;20905;-66
2021/10/07 11:52:38;;;;;;;1.70;0.67;;;13.50;99.90;;;;;;6226434;28;20479;-67
2021/10/07 11:55:43;;;;;;;1.57;1.20;;;13.60;99.90;;;;;;6226123;28;20460;-66
2021/10/07 11:58:51;;;;;;;1.00;0.80;;;13.60;99.90;;;;;;6219053;28;20473;-65
2021/10/07 12:01:55;;;;;;;1.63;0.87;;;13.70;99.90;;;;;;6201933;28;20473;-67
2021/10/07 12:05:17;;;;;;;1.47;1.37;;;13.70;99.90;;;;;;6201590;28;20925;-66
2021/10/07 12:08:23;;;;;;;2.47;1.10;;;13.70;99.90;;;;;;6201809;28;20479;-67
2021/10/07 12:11:28;;;;;;;0.73;0.70;;;13.70;99.90;;;;;;6201412;28;20488;-69
2021/10/07 12:14:33;;;;;;;1.07;0.93;;;13.80;99.90;;;;;;6201248;28;20476;-67
2021/10/07 12:17:36;;;;;;;1.87;1.50;;;13.80;99.90;;;;;;6215758;28;20536;-68
2021/10/07 12:20:40;;;;;;;2.77;2.20;;;13.80;99.90;;;;;;6225233;28;20476;-68
2021/10/07 12:23:59;;;;;;;4.60;4.17;;;13.80;99.90;;;;;;6225306;28;20992;-68
2021/10/07 12:27:02;;;;;;;3.40;3.07;;;13.80;99.90;;;;;;6226193;28;20472;-68
2021/10/07 12:30:07;;;;;;;4.63;3.97;;;13.70;99.90;;;;;;6224718;28;20494;-69
2021/10/07 12:33:11;;;;;;;4.27;3.87;;;13.80;99.90;;;;;;6225277;28;20475;-68
2021/10/07 12:36:15;;;;;;;2.63;2.40;;;13.80;99.90;;;;;;6242650;28;20475;-67
2021/10/07 12:39:26;;;;;;;2.53;2.33;;;13.70;99.90;;;;;;6249766;28;20947;-67
2021/10/07 12:42:30;;;;;;;3.80;2.90;;;13.80;99.90;;;;;;6249710;28;20979;-69
2021/10/07 12:45:33;;;;;;;11.57;6.20;;;13.90;99.90;;;;;;6249237;28;20485;-67
2021/10/07 12:48:47;;;;;;;2.30;1.63;;;13.90;99.90;;;;;;6249017;28;20483;-68
2021/10/07 12:51:50;;;;;;;4.57;2.10;;;13.80;99.90;;;;;;6250503;28;20466;-67
2021/10/07 12:54:57;;;;;;;2.00;1.80;;;13.90;99.90;;;;;;6240652;28;20478;-68
2021/10/07 12:58:00;;;;;;;2.20;1.30;;;13.90;99.90;;;;;;6249622;28;20471;-66
2021/10/07 13:01:12;;;;;;;2.83;2.00;;;14.10;99.90;;;;;;6253517;28;20812;-67
2021/10/07 13:04:20;;;;;;;2.10;1.83;;;14.20;99.90;;;;;;6230532;28;20475;-67
2021/10/07 13:07:25;;;;;;;1.13;1.00;;;14.20;99.90;;;;;;6230110;28;20711;-67
2021/10/07 13:10:31;;;;;;;2.10;1.20;;;14.20;99.90;;;;;;6230429;28;20905;-66
2021/10/07 13:13:36;;;;;;;1.70;1.30;;;14.20;99.90;;;;;;6229732;28;20956;-68
2021/10/07 13:16:39;;;;;;;1.60;1.40;;;14.30;99.90;;;;;;6228881;28;20792;-68
2021/10/07 13:19:42;;;;;;;3.83;1.73;;;14.30;99.90;;;;;;6222968;28;20467;-67
2021/10/07 13:22:46;;;;;;;1.77;1.67;;;14.30;99.90;;;;;;6230484;28;20483;-68
2021/10/07 13:25:51;;;;;;;2.20;2.00;;;14.30;99.90;;;;;;6230259;28;20479;-68
2021/10/07 13:28:54;;;;;;;1.40;1.20;;;14.30;99.90;;;;;;6229188;28;20471;-69
2021/10/07 13:31:57;;;;;;;1.73;1.20;;;14.30;99.90;;;;;;6228725;28;20483;-66
2021/10/07 13:35:01;;;;;;;1.73;1.10;;;14.30;99.90;;;;;;6229146;28;20479;-68
2021/10/07 13:38:05;;;;;;;2.90;1.20;;;14.30;99.90;;;;;;6230274;28;20483;-68
2021/10/07 13:41:10;;;;;;;1.20;1.10;;;14.20;99.90;;;;;;6228985;28;21110;-66
2021/10/07 13:44:15;;;;;;;1.30;1.20;;;14.20;99.90;;;;;;6238529;28;20475;-72
2021/10/07 13:47:19;;;;;;;1.33;1.20;;;14.20;99.90;;;;;;6254394;28;20478;-68
2021/10/07 13:50:22;;;;;;;1.43;1.33;;;14.20;99.90;;;;;;6240089;28;20472;-66
2021/10/07 13:53:25;;;;;;;1.50;1.40;;;14.10;99.90;;;;;;6228799;28;20479;-70
2021/10/07 13:56:30;;;;;;;1.90;1.70;;;14.10;99.90;;;;;;6244102;28;20482;-69
2021/10/07 13:59:33;;;;;;;1.40;1.30;;;14.10;99.90;;;;;;6253162;28;20485;-67
2021/10/07 14:02:37;;;;;;;2.27;1.97;;;14.10;99.90;;;;;;6252965;28;20467;-67
2021/10/07 14:05:44;;;;;;;3.43;1.70;;;14.10;99.90;;;;;;6252806;28;20482;-69
2021/10/07 14:08:48;;;;;;;2.57;2.00;;;14.10;99.90;;;;;;6252955;28;20480;-69
2021/10/07 14:11:53;;;;;;;3.63;3.20;;;14.00;99.90;;;;;;6252741;28;20475;-68
2021/10/07 14:14:56;;;;;;;3.10;2.03;;;14.00;99.90;;;;;;6252535;28;20467;-69
2021/10/07 14:18:00;;;;;;;2.30;2.10;;;13.90;99.90;;;;;;6252941;28;20463;-68
2021/10/07 14:21:03;;;;;;;1.93;1.60;;;14.00;99.90;;;;;;6235195;28;20995;-67
2021/10/07 14:24:06;;;;;;;2.20;1.43;;;14.00;99.90;;;;;;6218265;28;20965;-66
2021/10/07 14:27:11;;;;;;;1.70;1.50;;;14.00;99.90;;;;;;6218514;28;20510;-67
2021/10/07 14:30:15;;;;;;;2.60;2.37;;;13.90;99.90;;;;;;6218308;28;20975;-67
2021/10/07 14:33:19;;;;;;;3.30;3.00;;;13.90;99.90;;;;;;6226579;28;20491;-67
2021/10/07 14:36:22;;;;;;;2.70;2.40;;;13.90;99.90;;;;;;6227615;28;20478;-67
2021/10/07 14:39:25;;;;;;;2.30;2.10;;;13.80;99.90;;;;;;6239837;28;20475;-67
2021/10/07 14:42:30;;;;;;;3.70;2.27;;;13.80;99.90;;;;;;6219347;28;20476;-68
2021/10/07 14:45:33;;;;;;;6.13;2.57;;;13.80;99.90;;;;;;6216109;28;20480;-67
2021/10/07 14:48:36;;;;;;;4.03;3.30;;;13.90;99.90;;;;;;6215319;28;20473;-68
2021/10/07 14:51:40;;;;;;;2.70;2.47;;;13.90;99.90;;;;;;6224664;28;20480;-67
2021/10/07 14:54:43;;;;;;;6.23;2.83;;;13.90;99.90;;;;;;6223857;28;20475;-67
2021/10/07 14:57:47;;;;;;;5.23;3.10;;;13.80;99.90;;;;;;6240138;28;20486;-67
2021/10/07 15:00:50;;;;;;;9.50;5.20;;;13.80;99.90;;;;;;6211082;28;20991;-67
2021/10/07 15:03:56;;;;;;;2.63;2.43;;;13.80;99.90;;;;;;6204788;28;20503;-67
2021/10/07 15:06:59;;;;;;;2.80;1.97;;;13.80;99.90;;;;;;6216530;28;20490;-68
2021/10/07 15:10:04;;;;;;;2.30;2.10;;;13.80;99.90;;;;;;6219031;28;20478;-68
2021/10/07 15:13:08;;;;;;;3.17;2.27;;;13.80;99.90;;;;;;6226595;28;20472;-68
2021/10/07 15:16:12;;;;;;;3.63;2.60;;;13.80;99.90;;;;;;6250777;28;20455;-68
2021/10/07 15:19:15;;;;;;;2.83;2.53;;;13.80;99.90;;;;;;6247571;28;20498;-68
2021/10/07 15:22:20;;;;;;;2.83;2.50;;;13.70;99.90;;;;;;6203458;28;20461;-69
2021/10/07 15:25:23;;;;;;;2.17;1.97;;;13.70;99.90;;;;;;6203155;28;20484;-68
2021/10/07 15:28:27;;;;;;;1.70;1.27;;;13.70;99.90;;;;;;6229673;28;20447;-68
2021/10/07 15:31:31;;;;;;;2.57;2.37;;;13.70;99.90;;;;;;6251274;28;20482;-69
2021/10/07 15:34:37;;;;;;;1.80;1.70;;;13.60;99.90;;;;;;6251195;28;20538;-69
2021/10/07 15:37:41;;;;;;;1.77;1.67;;;13.50;99.90;;;;;;6230729;28;20960;-69
2021/10/07 15:40:47;;;;;;;1.83;1.73;;;13.60;99.90;;;;;;6226876;28;20471;-69
2021/10/07 15:43:51;;;;;;;2.10;1.50;;;13.50;99.90;;;;;;6226367;28;20860;-69
2021/10/07 15:46:55;;;;;;;2.40;1.93;;;13.60;99.90;;;;;;6225745;28;20467;-69
2021/10/07 15:49:58;;;;;;;1.73;1.63;;;13.60;99.90;;;;;;6226409;28;20487;-69
2021/10/07 15:53:01;;;;;;;1.90;1.50;;;13.50;99.90;;;;;;6226920;28;20511;-69
2021/10/07 15:56:06;;;;;;;1.47;1.37;;;13.60;99.90;;;;;;6224161;28;20585;-68
2021/10/07 15:59:11;;;;;;;2.37;2.17;;;13.50;99.90;;;;;;6224397;28;20471;-68
2021/10/07 16:02:14;;;;;;;2.63;2.00;;;13.50;99.90;;;;;;6241133;28;20967;-69